< < Back
Terminal Aerodrome Forecast


Current Version              Previous Versions:   1  2  3  4  5  6  7  8  9  

Terminal Aerodrome Forecast

434
FTUS42 KFFC 131602 AAA
TAFFTY
TAF AMD
KFTY 131602Z 1316/1412 34012G20KT P6SM SKC
     FM131800 34009KT P6SM SKC
     FM140200 34005KT P6SM FEW200
     FM140800 04004KT P6SM FEW080 SCT150=

Latest METAR

358
SAUS70 KWBC 131700 RRH
MTRFTY
METAR KFTY 131653Z 32008KT 10SM CLR 02/M15 A3040 RMK AO2 SLP299
T00171150


USA.gov is the U.S. government's official web portal to all federal, state and local government web resources and services.